Time;durP1;ratioP1;P1;durP2;ratioP2;P2;SDS_P1;SDS_P2;PMS_P1;PMS_P2;Temp;Humidity;BMP_temperature;BMP_pressure;BME280_temperature;BME280_humidity;BME280_pressure;Samples;Min_cycle;Max_cycle;Signal;HPM_P1;HPM_P2
2024/01/28 00:00:19;;;;;;;8.27;2.97;;;30.80;92.90;;;;;;4937018;29;20032;-72
2024/01/28 00:02:47;;;;;;;9.77;3.42;;;30.30;93.00;;;;;;4945172;28;20038;-72
2024/01/28 00:05:14;;;;;;;14.13;3.42;;;29.80;93.70;;;;;;4941393;29;20059;-72
2024/01/28 00:07:41;;;;;;;10.20;3.45;;;29.50;93.60;;;;;;4951292;28;20413;-73
2024/01/28 00:10:09;;;;;;;19.15;4.10;;;29.60;93.30;;;;;;4941434;28;20031;-73
2024/01/28 00:12:37;;;;;;;10.30;3.60;;;30.10;93.20;;;;;;4946912;28;20041;-74
2024/01/28 00:15:06;;;;;;;17.52;4.25;;;30.60;93.70;;;;;;4943792;28;20028;-73
2024/01/28 00:17:33;;;;;;;9.40;3.75;;;31.00;91.90;;;;;;4944643;28;20462;-73
2024/01/28 00:20:01;;;;;;;10.73;3.65;;;30.80;90.60;;;;;;4945580;29;20034;-72
2024/01/28 00:22:29;;;;;;;12.18;4.10;;;30.90;90.80;;;;;;4935930;29;20042;-73
2024/01/28 00:24:56;;;;;;;14.75;4.35;;;30.70;91.10;;;;;;4937498;29;20059;-72
2024/01/28 00:27:24;;;;;;;8.80;3.58;;;30.60;90.90;;;;;;4942338;28;20026;-71
2024/01/28 00:29:52;;;;;;;9.55;3.08;;;30.80;91.70;;;;;;4938258;29;20032;-72
2024/01/28 00:32:20;;;;;;;12.73;3.40;;;30.80;92.10;;;;;;4937034;29;20465;-72
2024/01/28 00:34:48;;;;;;;8.35;3.10;;;30.20;91.80;;;;;;4936394;29;20046;-71
2024/01/28 00:37:15;;;;;;;11.02;3.80;;;29.50;92.00;;;;;;4942211;29;20131;-72
2024/01/28 00:39:42;;;;;;;10.27;3.15;;;29.40;92.80;;;;;;4942297;28;20043;-73
2024/01/28 00:42:10;;;;;;;12.23;3.58;;;29.10;92.60;;;;;;4940879;29;20070;-72
2024/01/28 00:44:37;;;;;;;16.17;3.90;;;29.10;92.60;;;;;;4935794;29;20032;-71
2024/01/28 00:47:04;;;;;;;10.50;3.42;;;28.90;92.90;;;;;;4940252;28;20031;-72
2024/01/28 00:49:32;;;;;;;13.95;3.70;;;29.50;93.50;;;;;;4936195;29;20115;-71
2024/01/28 00:52:02;;;;;;;15.48;3.42;;;30.20;93.30;;;;;;4939307;29;20541;-72
2024/01/28 00:54:29;;;;;;;10.65;3.17;;;30.50;91.30;;;;;;4935758;29;20035;-72
2024/01/28 00:56:57;;;;;;;12.32;3.33;;;30.80;90.60;;;;;;4936226;29;20053;-72
2024/01/28 00:59:24;;;;;;;9.40;3.22;;;31.20;91.70;;;;;;4941651;29;20186;-73
2024/01/28 01:01:52;;;;;;;12.75;2.95;;;31.40;91.20;;;;;;4936996;29;20470;-72
2024/01/28 01:04:19;;;;;;;10.88;3.03;;;31.50;90.10;;;;;;4942168;29;20031;-73
2024/01/28 01:06:47;;;;;;;9.80;3.15;;;31.50;88.70;;;;;;4936062;29;20079;-72
2024/01/28 01:09:15;;;;;;;15.45;3.30;;;32.00;88.50;;;;;;4936887;29;20454;-73
2024/01/28 01:11:44;;;;;;;10.07;3.17;;;31.50;86.80;;;;;;4935697;29;20051;-72
2024/01/28 01:14:11;;;;;;;11.65;2.95;;;30.80;87.30;;;;;;4935389;29;20123;-71
2024/01/28 01:16:39;;;;;;;9.30;3.10;;;30.20;88.20;;;;;;4936473;29;20035;-73
2024/01/28 01:19:06;;;;;;;14.32;3.33;;;30.20;90.70;;;;;;4938030;29;20057;-73
2024/01/28 01:21:33;;;;;;;11.57;3.08;;;31.00;90.40;;;;;;4944863;29;20027;-72
2024/01/28 01:24:01;;;;;;;12.30;3.03;;;31.80;88.50;;;;;;4944217;28;20520;-72
2024/01/28 01:26:28;;;;;;;11.38;3.15;;;32.60;85.10;;;;;;4944717;28;20031;-73
2024/01/28 01:28:55;;;;;;;12.05;3.20;;;32.70;83.30;;;;;;4937359;29;20043;-72
2024/01/28 01:31:23;;;;;;;10.88;2.70;;;32.80;82.20;;;;;;4951233;28;20537;-73
2024/01/28 01:33:50;;;;;;;12.85;3.03;;;32.60;79.90;;;;;;4939625;29;20035;-73
2024/01/28 01:36:19;;;;;;;11.18;3.22;;;31.90;79.40;;;;;;4939116;29;20027;-72
2024/01/28 01:38:47;;;;;;;12.15;3.15;;;31.30;81.70;;;;;;4937738;29;20039;-73
2024/01/28 01:41:14;;;;;;;10.18;2.70;;;30.70;84.10;;;;;;4942654;29;20386;-73
2024/01/28 01:43:42;;;;;;;10.50;3.28;;;30.20;85.40;;;;;;4938420;28;20032;-73
2024/01/28 01:46:13;;;;;;;7.68;2.72;;;29.70;87.70;;;;;;4936411;29;20059;-72
2024/01/28 01:48:40;;;;;;;15.80;3.63;;;29.50;87.80;;;;;;4934526;29;20048;-72
2024/01/28 01:51:08;;;;;;;9.88;2.50;;;29.30;88.90;;;;;;4940447;29;20027;-73
2024/01/28 01:53:36;;;;;;;14.07;3.20;;;29.20;89.10;;;;;;4939759;29;20462;-73
2024/01/28 01:56:04;;;;;;;12.25;3.00;;;28.90;90.20;;;;;;4937086;29;20091;-73
2024/01/28 01:58:32;;;;;;;13.68;2.95;;;29.10;90.30;;;;;;4935744;29;20024;-73
2024/01/28 02:01:01;;;;;;;12.27;3.10;;;29.10;90.30;;;;;;4945199;28;20114;-73
2024/01/28 02:03:29;;;;;;;13.40;3.13;;;29.10;91.20;;;;;;4937044;28;20070;-72
2024/01/28 02:05:57;;;;;;;8.52;2.90;;;29.30;90.00;;;;;;4946563;28;20039;-73
2024/01/28 02:08:24;;;;;;;13.65;2.97;;;29.40;88.50;;;;;;4935659;28;20029;-72
2024/01/28 02:10:51;;;;;;;8.98;3.13;;;29.50;88.80;;;;;;4941819;28;20110;-73
2024/01/28 02:13:19;;;;;;;10.05;2.38;;;29.40;87.70;;;;;;4937848;28;20130;-73
2024/01/28 02:15:46;;;;;;;11.88;3.03;;;29.20;88.70;;;;;;4940247;28;20098;-73
2024/01/28 02:18:13;;;;;;;12.98;3.10;;;29.10;90.10;;;;;;4935016;29;20058;-73
2024/01/28 02:20:42;;;;;;;10.82;3.15;;;29.20;89.20;;;;;;4952075;28;20031;-72
2024/01/28 02:23:09;;;;;;;10.02;2.78;;;29.40;88.80;;;;;;4943960;28;20037;-72
2024/01/28 02:25:37;;;;;;;13.98;2.78;;;29.60;88.60;;;;;;4934540;28;20027;-72
2024/01/28 02:28:04;;;;;;;10.68;2.85;;;29.60;88.10;;;;;;4934749;29;20082;-72
2024/01/28 02:30:33;;;;;;;9.52;2.85;;;29.50;86.60;;;;;;4934407;29;20028;-72
2024/01/28 02:33:00;;;;;;;8.05;2.72;;;29.60;87.60;;;;;;4937840;29;20043;-72
2024/01/28 02:35:27;;;;;;;12.15;3.38;;;29.30;88.30;;;;;;4958624;28;20052;-71
2024/01/28 02:37:55;;;;;;;8.85;2.60;;;29.30;89.40;;;;;;4940544;28;20034;-72
2024/01/28 02:40:22;;;;;;;10.13;2.95;;;29.80;89.30;;;;;;4936395;29;20504;-72
2024/01/28 02:42:50;;;;;;;11.20;2.92;;;30.40;86.70;;;;;;4936512;28;20032;-72
2024/01/28 02:45:19;;;;;;;8.55;2.30;;;31.00;83.70;;;;;;4935920;29;20425;-72
2024/01/28 02:47:46;;;;;;;10.38;2.33;;;31.50;83.50;;;;;;4945354;28;20044;-72
2024/01/28 02:50:13;;;;;;;8.18;2.47;;;31.90;83.60;;;;;;4937752;28;20047;-72
2024/01/28 02:52:41;;;;;;;9.50;3.03;;;32.10;84.30;;;;;;4940648;29;21291;-73
2024/01/28 02:55:08;;;;;;;9.18;2.40;;;32.00;82.60;;;;;;4942063;29;20051;-71
2024/01/28 02:57:36;;;;;;;13.88;2.53;;;32.60;82.80;;;;;;4943075;28;20056;-70
2024/01/28 03:00:04;;;;;;;8.00;2.58;;;32.80;82.80;;;;;;4933934;29;20027;-74
2024/01/28 03:02:31;;;;;;;8.82;2.28;;;33.10;82.00;;;;;;4965203;28;20058;-72
2024/01/28 03:04:58;;;;;;;10.38;2.75;;;33.40;78.40;;;;;;4939145;29;20086;-72
2024/01/28 03:07:26;;;;;;;8.18;2.65;;;33.30;78.90;;;;;;4934723;29;20027;-73
2024/01/28 03:09:56;;;;;;;10.27;2.35;;;33.00;77.70;;;;;;4958009;28;20051;-72
2024/01/28 03:12:24;;;;;;;10.65;2.67;;;32.10;79.40;;;;;;4937117;28;20067;-73
2024/01/28 03:14:52;;;;;;;8.57;2.03;;;31.60;80.70;;;;;;4942472;29;20058;-72
2024/01/28 03:17:19;;;;;;;17.23;2.92;;;31.20;81.90;;;;;;4936106;28;20023;-72
2024/01/28 03:19:47;;;;;;;12.25;2.20;;;31.10;81.40;;;;;;4940357;28;20042;-73
2024/01/28 03:22:14;;;;;;;7.43;1.90;;;31.00;83.70;;;;;;4945453;29;20114;-72
2024/01/28 03:24:42;;;;;;;12.65;2.58;;;30.90;84.60;;;;;;4945931;28;20042;-72
2024/01/28 03:27:09;;;;;;;8.85;2.33;;;30.80;86.10;;;;;;4942418;28;20370;-72
2024/01/28 03:29:37;;;;;;;9.68;1.90;;;30.90;86.50;;;;;;4938949;28;20083;-72
2024/01/28 03:32:05;;;;;;;11.50;2.58;;;30.80;86.70;;;;;;4946340;29;20465;-72
2024/01/28 03:34:32;;;;;;;9.90;2.20;;;30.60;85.30;;;;;;4936695;29;20429;-71
2024/01/28 03:36:59;;;;;;;14.93;2.97;;;30.20;86.60;;;;;;4937383;29;20507;-73
2024/01/28 03:39:27;;;;;;;12.60;2.50;;;30.20;88.40;;;;;;4959634;28;20039;-73
2024/01/28 03:41:54;;;;;;;8.88;2.45;;;30.00;88.10;;;;;;4939932;29;20524;-74
2024/01/28 03:44:23;;;;;;;16.17;2.45;;;29.70;88.00;;;;;;4943527;28;20055;-72
2024/01/28 03:46:52;;;;;;;15.20;2.40;;;29.90;89.70;;;;;;4945829;29;20058;-73
2024/01/28 03:49:20;;;;;;;14.68;2.72;;;30.10;88.40;;;;;;4952641;29;20031;-73
2024/01/28 03:51:48;;;;;;;10.32;2.30;;;30.20;87.70;;;;;;4942954;28;20032;-72
2024/01/28 03:54:15;;;;;;;11.23;2.63;;;30.60;88.40;;;;;;4939552;29;20094;-74
2024/01/28 03:56:43;;;;;;;12.73;2.55;;;30.60;88.40;;;;;;4946738;28;20031;-74
2024/01/28 03:59:11;;;;;;;13.80;2.97;;;30.00;88.40;;;;;;4937701;29;20353;-73
2024/01/28 04:01:38;;;;;;;9.48;2.20;;;29.80;90.00;;;;;;4943519;29;20041;-73
2024/01/28 04:04:06;;;;;;;10.15;2.15;;;29.70;90.00;;;;;;4936946;29;20035;-72
2024/01/28 04:06:34;;;;;;;7.90;2.20;;;29.40;90.50;;;;;;4947322;29;20076;-73
2024/01/28 04:09:01;;;;;;;8.18;2.63;;;29.60;90.50;;;;;;4942470;28;20063;-72
2024/01/28 04:11:29;;;;;;;9.98;3.20;;;29.40;90.20;;;;;;4949122;29;20042;-72
2024/01/28 04:13:56;;;;;;;10.75;2.95;;;29.30;90.30;;;;;;4946172;28;20038;-73
2024/01/28 04:16:26;;;;;;;8.90;2.33;;;29.30;90.70;;;;;;4959519;28;20035;-73
2024/01/28 04:18:54;;;;;;;10.68;2.65;;;29.20;90.60;;;;;;4936560;29;20043;-69
2024/01/28 04:21:23;;;;;;;8.35;2.33;;;29.10;91.10;;;;;;4936498;29;20370;-69
2024/01/28 04:23:52;;;;;;;9.60;2.60;;;28.90;91.30;;;;;;4944339;29;20115;-69
2024/01/28 04:26:20;;;;;;;11.63;2.83;;;28.90;91.60;;;;;;4935673;29;20546;-68
2024/01/28 04:28:47;;;;;;;15.55;2.92;;;29.20;91.80;;;;;;4936736;28;20028;-68
2024/01/28 04:31:15;;;;;;;11.10;2.50;;;29.90;90.80;;;;;;4941918;28;20462;-71
2024/01/28 04:33:43;;;;;;;8.70;2.28;;;30.60;90.70;;;;;;4938656;29;20464;-69
2024/01/28 04:36:10;;;;;;;14.40;2.10;;;30.80;89.50;;;;;;4938010;28;20027;-69
2024/01/28 04:38:38;;;;;;;11.35;2.45;;;30.60;87.40;;;;;;4944880;28;20083;-69
2024/01/28 04:41:05;;;;;;;8.38;2.08;;;30.10;87.70;;;;;;4950717;29;20138;-68
2024/01/28 04:43:33;;;;;;;6.18;2.13;;;29.70;89.20;;;;;;4938684;28;20028;-69
2024/01/28 04:46:00;;;;;;;8.75;2.03;;;29.20;90.20;;;;;;4938088;28;20026;-68
2024/01/28 04:48:27;;;;;;;10.65;2.25;;;29.00;90.90;;;;;;4939973;28;20364;-68
2024/01/28 04:50:55;;;;;;;12.38;2.58;;;28.90;90.90;;;;;;4939282;28;20056;-70
2024/01/28 04:53:23;;;;;;;9.52;2.53;;;29.10;90.90;;;;;;4940185;28;20434;-69
2024/01/28 04:55:50;;;;;;;10.23;2.67;;;29.60;90.70;;;;;;4941809;28;20038;-69
2024/01/28 04:58:17;;;;;;;10.18;2.17;;;29.90;90.50;;;;;;4943327;28;20023;-69
2024/01/28 05:00:45;;;;;;;9.25;2.03;;;30.20;89.90;;;;;;4942726;28;20027;-68
2024/01/28 05:03:12;;;;;;;13.23;2.25;;;30.30;90.10;;;;;;4949291;29;20208;-69
2024/01/28 05:05:40;;;;;;;12.50;2.35;;;30.50;87.80;;;;;;4936320;29;20031;-68
2024/01/28 05:08:07;;;;;;;10.07;1.98;;;30.50;87.60;;;;;;4938056;29;20335;-69
2024/01/28 05:10:35;;;;;;;11.00;2.75;;;30.50;87.50;;;;;;4939386;29;20107;-68
2024/01/28 05:13:02;;;;;;;7.82;1.90;;;30.40;88.40;;;;;;4935719;29;20036;-69
2024/01/28 05:15:30;;;;;;;10.70;2.10;;;30.10;88.60;;;;;;4939599;29;20134;-68
2024/01/28 05:17:57;;;;;;;10.38;2.30;;;29.60;89.40;;;;;;4939127;28;20536;-69
2024/01/28 05:20:24;;;;;;;10.80;2.30;;;29.30;90.00;;;;;;4942410;28;20114;-68
2024/01/28 05:22:52;;;;;;;12.30;2.38;;;29.30;90.20;;;;;;4938278;28;20027;-68
2024/01/28 05:25:19;;;;;;;6.85;2.33;;;29.60;90.50;;;;;;4948058;28;20157;-67
2024/01/28 05:27:47;;;;;;;11.98;2.30;;;29.30;90.10;;;;;;4940314;28;20028;-67
2024/01/28 05:30:14;;;;;;;8.85;2.22;;;29.20;90.30;;;;;;4936787;28;20031;-67
2024/01/28 05:32:42;;;;;;;7.13;2.40;;;29.30;90.00;;;;;;4941118;28;20046;-67
2024/01/28 05:35:09;;;;;;;12.45;2.45;;;29.60;90.30;;;;;;4934147;29;20038;-69
2024/01/28 05:37:37;;;;;;;11.02;2.40;;;29.80;89.60;;;;;;4940950;29;20035;-67
2024/01/28 05:40:05;;;;;;;14.40;2.63;;;29.70;90.40;;;;;;4937305;29;20023;-68
2024/01/28 05:42:32;;;;;;;8.05;2.28;;;29.50;90.10;;;;;;4941711;28;20085;-68
2024/01/28 05:45:00;;;;;;;10.23;2.00;;;29.20;90.70;;;;;;4939309;29;20053;-68
2024/01/28 05:47:27;;;;;;;11.05;2.45;;;29.10;90.70;;;;;;4937209;29;20031;-69
2024/01/28 05:49:55;;;;;;;11.38;2.55;;;29.20;90.90;;;;;;4940210;29;20071;-68
2024/01/28 05:52:23;;;;;;;12.15;2.13;;;29.20;90.90;;;;;;4934586;29;20594;-69
2024/01/28 05:54:50;;;;;;;14.57;3.03;;;29.20;90.90;;;;;;4939889;29;20038;-69
2024/01/28 05:57:17;;;;;;;12.45;3.00;;;29.30;90.30;;;;;;4940487;28;20027;-68
2024/01/28 05:59:45;;;;;;;10.20;2.72;;;29.40;90.40;;;;;;4940690;28;20046;-70
2024/01/28 06:02:12;;;;;;;9.50;2.40;;;29.40;90.20;;;;;;4936825;28;20024;-69
2024/01/28 06:04:40;;;;;;;15.75;2.58;;;29.40;90.20;;;;;;4939558;28;20027;-69
2024/01/28 06:07:08;;;;;;;7.30;2.05;;;29.40;90.50;;;;;;4935364;28;20482;-69
2024/01/28 06:09:39;;;;;;;10.73;2.40;;;29.50;90.60;;;;;;4943341;28;20628;-68
2024/01/28 06:12:06;;;;;;;11.93;2.67;;;29.50;90.70;;;;;;4942649;28;20019;-67
2024/01/28 06:14:33;;;;;;;13.65;2.20;;;29.50;90.60;;;;;;4945018;29;20035;-68
2024/01/28 06:17:01;;;;;;;15.02;3.30;;;29.20;90.50;;;;;;4937836;28;20085;-68
2024/01/28 06:19:28;;;;;;;13.05;2.38;;;28.80;90.90;;;;;;4942486;28;20106;-68
2024/01/28 06:22:00;;;;;;;10.00;2.60;;;28.70;91.20;;;;;;4946481;28;20039;-68
2024/01/28 06:24:27;;;;;;;7.93;2.10;;;28.40;91.60;;;;;;4940607;29;20031;-69
2024/01/28 06:26:55;;;;;;;14.05;2.67;;;28.50;91.70;;;;;;4935429;28;20032;-68
2024/01/28 06:29:22;;;;;;;22.48;2.75;;;28.50;92.00;;;;;;4934941;29;20028;-68
2024/01/28 06:31:50;;;;;;;9.27;2.33;;;28.30;92.00;;;;;;4934031;29;20103;-68
2024/01/28 06:34:18;;;;;;;12.55;2.08;;;28.20;92.10;;;;;;4934368;29;20095;-68
2024/01/28 06:36:50;;;;;;;8.35;1.80;;;28.10;92.30;;;;;;4935563;29;20034;-68
2024/01/28 06:39:17;;;;;;;11.23;2.33;;;28.00;92.50;;;;;;4951328;28;20477;-68
2024/01/28 06:41:45;;;;;;;11.18;2.00;;;28.10;92.50;;;;;;4939479;29;20035;-67
2024/01/28 06:44:13;;;;;;;9.23;2.15;;;28.00;92.60;;;;;;4934996;29;20032;-68
2024/01/28 06:46:40;;;;;;;12.20;2.38;;;27.90;92.70;;;;;;4936806;28;20039;-68
2024/01/28 06:49:07;;;;;;;9.32;1.77;;;27.80;92.90;;;;;;4942296;29;20461;-68
2024/01/28 06:51:40;;;;;;;10.75;2.63;;;27.70;93.10;;;;;;4942573;29;20035;-68
2024/01/28 06:54:07;;;;;;;15.27;2.35;;;27.80;93.10;;;;;;4940671;29;20055;-70
2024/01/28 06:56:34;;;;;;;12.35;2.10;;;27.90;93.10;;;;;;4942997;29;20031;-70
2024/01/28 06:59:02;;;;;;;8.60;2.45;;;28.10;93.40;;;;;;4951561;28;20370;-69
2024/01/28 07:01:29;;;;;;;16.27;2.60;;;27.90;93.00;;;;;;4947274;28;20106;-69
2024/01/28 07:03:56;;;;;;;12.75;2.78;;;27.70;93.30;;;;;;4944772;29;20035;-69
2024/01/28 07:06:24;;;;;;;15.40;2.17;;;27.30;93.70;;;;;;4942837;28;20047;-70
2024/01/28 07:08:51;;;;;;;8.95;2.20;;;27.10;94.10;;;;;;4948174;29;20019;-69
2024/01/28 07:11:19;;;;;;;13.15;2.65;;;27.20;94.20;;;;;;4945246;28;20032;-72
2024/01/28 07:13:46;;;;;;;11.93;2.72;;;27.10;94.40;;;;;;4948956;29;20436;-69
2024/01/28 07:16:14;;;;;;;13.23;2.33;;;27.10;94.40;;;;;;4941836;28;20117;-69
2024/01/28 07:18:41;;;;;;;14.20;2.10;;;27.10;94.40;;;;;;4938381;28;20030;-69
2024/01/28 07:21:09;;;;;;;13.07;2.85;;;27.30;94.50;;;;;;4944290;28;20031;-70
2024/01/28 07:23:36;;;;;;;12.48;2.20;;;27.40;94.40;;;;;;4940723;28;20039;-69
2024/01/28 07:26:04;;;;;;;16.80;2.40;;;27.10;94.50;;;;;;4939959;28;20075;-69
2024/01/28 07:28:33;;;;;;;8.20;2.20;;;26.90;94.80;;;;;;4946751;28;20028;-70
2024/01/28 07:31:00;;;;;;;14.43;2.67;;;26.80;95.00;;;;;;4945880;28;20452;-70
2024/01/28 07:33:28;;;;;;;11.85;2.17;;;26.70;95.10;;;;;;4946795;28;20043;-69
2024/01/28 07:35:55;;;;;;;13.30;2.55;;;26.60;95.30;;;;;;4945098;28;20027;-69
2024/01/28 07:38:23;;;;;;;11.85;2.42;;;26.60;95.50;;;;;;4942829;28;20114;-69
2024/01/28 07:40:50;;;;;;;12.75;1.95;;;26.60;95.70;;;;;;4948501;28;20129;-69
2024/01/28 07:43:19;;;;;;;18.25;3.22;;;26.50;95.70;;;;;;4940100;28;20442;-69
2024/01/28 07:45:46;;;;;;;14.20;2.67;;;26.30;95.90;;;;;;4946437;28;20034;-69
2024/01/28 07:48:15;;;;;;;13.95;2.55;;;26.40;96.10;;;;;;4941266;29;20024;-68
2024/01/28 07:50:42;;;;;;;12.57;2.33;;;26.30;96.30;;;;;;4947816;28;20028;-68
2024/01/28 07:53:10;;;;;;;7.75;1.90;;;26.30;96.50;;;;;;4941411;29;20568;-68
2024/01/28 07:55:40;;;;;;;10.57;2.20;;;26.30;96.30;;;;;;4938622;28;20087;-69
2024/01/28 07:58:07;;;;;;;10.98;2.28;;;26.30;96.30;;;;;;4936616;29;20054;-69
2024/01/28 08:00:35;;;;;;;11.95;2.88;;;26.20;96.30;;;;;;4945724;29;20028;-69
2024/01/28 08:03:02;;;;;;;10.88;2.75;;;26.20;96.50;;;;;;4936133;28;20039;-68
2024/01/28 08:05:30;;;;;;;15.40;2.22;;;26.20;96.60;;;;;;4941008;29;20074;-69
2024/01/28 08:07:57;;;;;;;8.32;1.65;;;26.20;96.60;;;;;;4936287;29;20428;-70
2024/01/28 08:10:24;;;;;;;14.13;2.17;;;26.20;96.70;;;;;;4959454;28;20118;-69
2024/01/28 08:12:52;;;;;;;13.80;2.40;;;26.20;96.70;;;;;;4935892;29;20044;-68
2024/01/28 08:15:22;;;;;;;8.80;1.92;;;26.10;96.70;;;;;;4944174;29;20020;-68
2024/01/28 08:17:50;;;;;;;13.60;2.47;;;26.00;96.90;;;;;;4938542;28;20038;-68
2024/01/28 08:20:18;;;;;;;8.77;2.38;;;26.00;97.00;;;;;;4938490;29;20377;-68
2024/01/28 08:22:45;;;;;;;10.90;2.50;;;26.10;97.10;;;;;;4942061;28;20028;-68
2024/01/28 08:25:13;;;;;;;19.33;3.55;;;26.00;97.10;;;;;;4939573;29;20070;-71
2024/01/28 08:27:40;;;;;;;16.52;2.65;;;25.80;97.20;;;;;;4937127;28;20035;-68
2024/01/28 08:30:08;;;;;;;14.00;2.55;;;25.90;97.30;;;;;;4940744;29;20077;-69
2024/01/28 08:32:35;;;;;;;16.25;2.65;;;26.00;97.30;;;;;;4940594;28;20086;-68
2024/01/28 08:35:03;;;;;;;17.75;4.15;;;25.80;97.30;;;;;;4960516;28;20062;-69
2024/01/28 08:37:31;;;;;;;15.00;3.05;;;25.80;97.50;;;;;;4937850;28;20026;-69
2024/01/28 08:39:58;;;;;;;20.77;4.00;;;25.70;97.60;;;;;;4938750;29;20035;-69
2024/01/28 08:42:27;;;;;;;10.35;2.30;;;25.70;97.60;;;;;;4940996;28;20472;-69
2024/01/28 08:44:54;;;;;;;15.00;2.90;;;25.80;97.50;;;;;;4939804;29;20027;-69
2024/01/28 08:47:22;;;;;;;17.65;2.78;;;25.70;97.70;;;;;;4945137;29;20035;-68
2024/01/28 08:49:50;;;;;;;14.20;2.67;;;25.60;97.80;;;;;;4935059;28;20051;-68
2024/01/28 08:52:18;;;;;;;15.48;3.10;;;25.60;97.80;;;;;;4946808;28;20129;-68
2024/01/28 08:54:46;;;;;;;16.95;3.70;;;25.60;97.90;;;;;;4943521;28;20167;-68
2024/01/28 08:57:14;;;;;;;11.48;2.60;;;25.50;98.00;;;;;;4946331;28;20027;-67
2024/01/28 08:59:41;;;;;;;11.15;2.42;;;25.50;98.10;;;;;;4939673;28;20035;-68
2024/01/28 09:02:09;;;;;;;11.80;2.47;;;25.40;98.10;;;;;;4947675;29;20175;-69
2024/01/28 09:04:36;;;;;;;14.48;3.30;;;25.40;98.10;;;;;;4943199;28;20035;-69
2024/01/28 09:07:04;;;;;;;11.98;2.13;;;25.40;98.10;;;;;;4946788;28;20070;-69
2024/01/28 09:09:31;;;;;;;10.85;2.38;;;25.40;98.20;;;;;;4941369;28;20033;-69
2024/01/28 09:11:59;;;;;;;13.40;2.33;;;25.40;98.30;;;;;;4943527;28;20154;-69
2024/01/28 09:14:29;;;;;;;13.98;2.25;;;25.20;98.40;;;;;;4936864;28;20039;-69
2024/01/28 09:16:56;;;;;;;10.93;2.13;;;25.20;98.50;;;;;;4945633;29;20020;-69
2024/01/28 09:19:24;;;;;;;15.80;1.98;;;25.20;98.50;;;;;;4935149;29;20421;-71
2024/01/28 09:21:51;;;;;;;11.50;2.35;;;25.20;98.50;;;;;;4936444;29;20253;-68
2024/01/28 09:24:19;;;;;;;10.48;1.92;;;25.20;98.60;;;;;;4942387;29;20665;-68
2024/01/28 09:26:46;;;;;;;12.48;2.13;;;25.20;98.60;;;;;;4938368;28;20039;-69
2024/01/28 09:29:14;;;;;;;15.30;2.53;;;25.20;98.60;;;;;;4936743;29;20024;-68
2024/01/28 09:31:45;;;;;;;14.10;2.20;;;25.20;98.70;;;;;;4934756;29;20025;-68
2024/01/28 09:34:13;;;;;;;11.02;2.53;;;25.10;99.00;;;;;;4939739;29;20039;-68
2024/01/28 09:36:40;;;;;;;15.52;2.97;;;25.10;98.90;;;;;;4935146;29;20036;-68
2024/01/28 09:39:07;;;;;;;10.77;2.33;;;25.10;98.90;;;;;;4934633;29;20035;-69
2024/01/28 09:42:12;;;;;;;9.23;2.55;;;24.90;99.20;;;;;;4939677;29;20031;-69
2024/01/28 09:44:40;;;;;;;14.88;2.08;;;25.00;99.30;;;;;;4937807;29;20190;-68
2024/01/28 09:47:09;;;;;;;11.80;1.80;;;24.90;99.50;;;;;;4938633;29;20072;-69
2024/01/28 09:49:39;;;;;;;27.08;3.80;;;25.00;99.50;;;;;;4933991;29;20474;-67
2024/01/28 09:52:11;;;;;;;15.75;2.95;;;25.10;99.50;;;;;;4942853;29;20119;-69
2024/01/28 09:54:39;;;;;;;12.07;2.58;;;25.10;99.40;;;;;;4939037;29;20130;-69
2024/01/28 09:57:08;;;;;;;12.00;2.42;;;25.00;99.50;;;;;;4936856;28;20035;-69
2024/01/28 09:59:36;;;;;;;10.80;2.28;;;24.80;99.70;;;;;;4942610;29;20035;-69
2024/01/28 10:02:05;;;;;;;11.75;2.65;;;24.90;99.80;;;;;;4938620;29;20549;-69
2024/01/28 10:04:34;;;;;;;16.73;3.22;;;24.90;99.80;;;;;;4948891;29;20533;-68
2024/01/28 10:07:02;;;;;;;20.20;3.20;;;24.90;99.70;;;;;;4951402;28;20106;-68
2024/01/28 10:09:31;;;;;;;40.90;5.28;;;24.90;99.80;;;;;;4942433;28;20552;-68
2024/01/28 10:12:04;;;;;;;11.63;2.47;;;24.90;99.90;;;;;;4944400;29;20381;-68
2024/01/28 10:14:31;;;;;;;18.02;2.40;;;24.90;99.90;;;;;;4936744;28;20040;-70
2024/01/28 10:16:59;;;;;;;12.65;2.58;;;24.90;99.80;;;;;;4935019;28;20032;-69
2024/01/28 10:19:26;;;;;;;9.73;2.05;;;25.00;99.80;;;;;;4942539;28;20082;-69
2024/01/28 10:21:54;;;;;;;15.60;2.80;;;25.00;99.70;;;;;;4943085;28;20532;-68
2024/01/28 10:24:21;;;;;;;11.32;2.22;;;24.90;99.90;;;;;;4940994;28;20023;-68
2024/01/28 10:26:49;;;;;;;12.25;2.05;;;24.90;99.90;;;;;;4937088;29;20413;-68
2024/01/28 10:29:17;;;;;;;11.68;2.28;;;24.80;99.90;;;;;;4937241;28;20384;-69
2024/01/28 10:31:45;;;;;;;7.50;2.08;;;24.90;99.90;;;;;;4942844;29;20604;-69
2024/01/28 10:34:12;;;;;;;11.68;2.20;;;24.80;99.90;;;;;;4934097;29;20115;-69
2024/01/28 10:36:45;;;;;;;9.20;2.70;;;24.90;99.90;;;;;;4934280;29;20055;-68
2024/01/28 10:39:16;;;;;;;12.40;1.90;;;25.00;99.90;;;;;;4938272;28;20083;-69
2024/01/28 10:41:45;;;;;;;8.00;1.95;;;25.00;99.90;;;;;;4939253;29;20042;-68
2024/01/28 10:44:30;;;;;;;13.35;2.20;;;24.90;99.90;;;;;;4941364;29;20499;-69
2024/01/28 10:47:26;;;;;;;9.07;2.00;;;24.90;99.90;;;;;;4936451;29;20036;-68
2024/01/28 10:50:12;;;;;;;14.30;3.15;;;24.80;99.90;;;;;;4944409;29;20032;-68
2024/01/28 10:52:45;;;;;;;18.98;2.85;;;24.80;99.90;;;;;;4938229;29;20124;-67
2024/01/28 10:55:16;;;;;;;14.13;2.72;;;24.80;99.90;;;;;;4943526;29;20067;-68
2024/01/28 10:57:50;;;;;;;18.40;3.33;;;24.70;99.90;;;;;;4948468;28;20452;-68
2024/01/28 11:00:20;;;;;;;12.88;2.35;;;24.70;99.90;;;;;;4945981;28;20078;-68
2024/01/28 11:02:49;;;;;;;13.63;2.13;;;24.80;99.90;;;;;;4937804;28;20098;-68
2024/01/28 11:05:17;;;;;;;12.02;2.47;;;24.70;99.90;;;;;;4939923;29;20032;-70
2024/01/28 11:07:44;;;;;;;11.68;2.80;;;24.80;99.90;;;;;;4938299;28;20031;-68
2024/01/28 11:10:12;;;;;;;13.07;2.92;;;24.90;99.90;;;;;;4940013;28;20482;-68
2024/01/28 11:12:39;;;;;;;11.32;2.25;;;24.80;99.90;;;;;;4940503;29;20099;-68
2024/01/28 11:15:15;;;;;;;17.25;2.00;;;24.70;99.90;;;;;;4936815;29;20478;-69
2024/01/28 11:17:44;;;;;;;18.27;2.47;;;24.80;99.90;;;;;;4935346;28;20027;-69
2024/01/28 11:20:17;;;;;;;12.98;2.70;;;24.70;99.90;;;;;;4939824;28;20062;-69
2024/01/28 11:22:51;;;;;;;10.68;2.08;;;24.80;99.90;;;;;;4951015;28;20482;-69
2024/01/28 11:25:24;;;;;;;11.65;2.60;;;24.70;99.90;;;;;;4938182;29;20035;-68
2024/01/28 11:27:58;;;;;;;12.45;1.70;;;24.80;99.90;;;;;;4941380;29;20035;-68
2024/01/28 11:30:26;;;;;;;9.93;2.05;;;24.80;99.90;;;;;;4941471;28;20035;-68
2024/01/28 11:33:17;;;;;;;8.68;1.75;;;24.80;99.90;;;;;;4938849;29;20054;-70
2024/01/28 11:35:46;;;;;;;11.95;1.85;;;24.90;99.90;;;;;;4938855;29;20032;-67
2024/01/28 11:38:35;;;;;;;8.63;1.70;;;24.90;99.90;;;;;;4946043;29;20495;-68
2024/01/28 11:41:03;;;;;;;11.57;2.10;;;24.60;99.90;;;;;;4942717;29;20382;-69
2024/01/28 11:43:31;;;;;;;9.18;1.90;;;24.60;99.90;;;;;;4949349;28;20426;-68
2024/01/28 11:45:59;;;;;;;10.85;1.88;;;24.60;99.90;;;;;;4945098;28;20035;-70
2024/01/28 11:48:27;;;;;;;8.50;1.73;;;24.50;99.90;;;;;;4948808;28;20564;-68
2024/01/28 11:50:54;;;;;;;10.52;2.70;;;24.60;99.90;;;;;;4941255;28;20052;-68
2024/01/28 11:53:22;;;;;;;9.65;1.83;;;24.60;99.90;;;;;;4940666;28;20051;-68
2024/01/28 11:55:49;;;;;;;8.80;2.05;;;24.60;99.90;;;;;;4949218;28;20458;-68
2024/01/28 11:58:18;;;;;;;10.80;2.63;;;24.60;99.90;;;;;;4941898;29;20063;-69
2024/01/28 12:00:45;;;;;;;6.32;1.30;;;24.60;99.90;;;;;;4944213;28;20028;-68
2024/01/28 12:03:13;;;;;;;10.95;2.10;;;24.60;99.90;;;;;;4942934;28;20553;-68
2024/01/28 12:05:41;;;;;;;10.50;1.83;;;24.60;99.90;;;;;;4945387;28;20393;-69
2024/01/28 12:08:09;;;;;;;8.23;2.00;;;24.60;99.90;;;;;;4938240;29;20180;-68
2024/01/28 12:10:37;;;;;;;9.40;2.15;;;24.70;99.90;;;;;;4948603;29;20028;-68
2024/01/28 12:13:05;;;;;;;12.23;1.70;;;24.70;99.90;;;;;;4945404;28;20401;-68
2024/01/28 12:15:33;;;;;;;13.68;2.00;;;24.70;99.90;;;;;;4943523;28;20031;-69
2024/01/28 12:18:00;;;;;;;8.27;2.10;;;24.80;99.90;;;;;;4947030;29;20028;-68
2024/01/28 12:20:28;;;;;;;10.52;1.70;;;24.80;99.90;;;;;;4940766;28;20036;-68
2024/01/28 12:22:55;;;;;;;12.43;2.15;;;24.70;99.90;;;;;;4940747;29;20031;-68
2024/01/28 12:25:24;;;;;;;12.20;1.55;;;24.70;99.90;;;;;;4944587;28;20031;-69
2024/01/28 12:27:51;;;;;;;10.60;2.40;;;24.70;99.90;;;;;;4939332;29;20055;-69
2024/01/28 12:30:20;;;;;;;7.47;1.58;;;24.60;99.90;;;;;;4943773;28;20095;-69
2024/01/28 12:32:50;;;;;;;7.90;1.85;;;24.60;99.90;;;;;;4953234;28;20051;-69
2024/01/28 12:35:18;;;;;;;9.73;1.58;;;24.70;99.90;;;;;;4942707;29;20027;-66
2024/01/28 12:37:46;;;;;;;8.70;1.85;;;24.80;99.90;;;;;;4936604;29;20437;-69
2024/01/28 12:40:13;;;;;;;8.90;1.55;;;24.80;99.90;;;;;;4942193;28;20036;-69
2024/01/28 12:42:41;;;;;;;15.05;2.30;;;24.80;99.90;;;;;;4942045;28;20142;-69
2024/01/28 12:45:09;;;;;;;14.52;2.95;;;24.80;99.90;;;;;;4940623;28;20488;-69